Anchor, Texas
Current Conditions -  °F | °C
As of 7:53 PM on Saturday 22 Nov 2014 (Local Time) from KLBX Reporting Station
Light Rain Light Rain  
Wind Chill: 67°   Ceiling: 4400
Heat Index: 67°   Visibility: 10mi
Dew Point: 66°   Wind: 13mph
Humidity: 97%   Direction: 150°SSE
Pressure: 29.81"   Gusts: NA
Location:  29.1898°N, 95.4754°W
Report Text: KLBX 230153Z AUTO 15011KT 10SM -RA SCT015 BKN044 OVC065 19/19 A2981 RMK AO2 LTG DSNT E AND W RAB0057 SLP095 P0008 T01940189
Loading
Personal Weather Stations






























Interactive Weather Map New forecast layout! Learn more

10-Day Weather Forecast

Advertisements
Track Severe Weather on mobile